sensor_id;sensor_type;location;lat;lon;timestamp;P1;durP1;ratioP1;P2;durP2;ratioP2
36233;SDS011;43467;50.890;5.982;2022-07-22T00:00:18;19.65;;;9.48;;
36233;SDS011;43467;50.890;5.982;2022-07-22T00:02:44;24.80;;;9.48;;
36233;SDS011;43467;50.890;5.982;2022-07-22T00:05:09;26.98;;;10.18;;
36233;SDS011;43467;50.890;5.982;2022-07-22T00:07:36;26.65;;;10.13;;
36233;SDS011;43467;50.890;5.982;2022-07-22T00:10:03;21.20;;;9.68;;
36233;SDS011;43467;50.890;5.982;2022-07-22T00:12:30;21.63;;;8.50;;
36233;SDS011;43467;50.890;5.982;2022-07-22T00:14:55;21.52;;;8.65;;
36233;SDS011;43467;50.890;5.982;2022-07-22T00:17:20;17.90;;;8.90;;
36233;SDS011;43467;50.890;5.982;2022-07-22T00:19:46;19.20;;;8.85;;
36233;SDS011;43467;50.890;5.982;2022-07-22T00:22:11;24.38;;;8.52;;
36233;SDS011;43467;50.890;5.982;2022-07-22T00:24:37;16.33;;;8.18;;
36233;SDS011;43467;50.890;5.982;2022-07-22T00:27:02;17.67;;;7.72;;
36233;SDS011;43467;50.890;5.982;2022-07-22T00:29:27;20.42;;;8.35;;
36233;SDS011;43467;50.890;5.982;2022-07-22T00:31:53;18.80;;;9.05;;
36233;SDS011;43467;50.890;5.982;2022-07-22T00:34:18;16.88;;;8.63;;
36233;SDS011;43467;50.890;5.982;2022-07-22T00:36:43;23.15;;;8.35;;
36233;SDS011;43467;50.890;5.982;2022-07-22T00:39:09;19.67;;;8.52;;
36233;SDS011;43467;50.890;5.982;2022-07-22T00:41:34;24.42;;;8.88;;
36233;SDS011;43467;50.890;5.982;2022-07-22T00:44:00;15.52;;;7.13;;
36233;SDS011;43467;50.890;5.982;2022-07-22T00:46:28;17.10;;;7.47;;
36233;SDS011;43467;50.890;5.982;2022-07-22T00:48:55;16.58;;;7.50;;
36233;SDS011;43467;50.890;5.982;2022-07-22T00:51:21;20.30;;;7.75;;
36233;SDS011;43467;50.890;5.982;2022-07-22T00:53:47;20.50;;;7.60;;
36233;SDS011;43467;50.890;5.982;2022-07-22T00:56:14;18.02;;;7.93;;
36233;SDS011;43467;50.890;5.982;2022-07-22T00:58:41;22.55;;;7.57;;
36233;SDS011;43467;50.890;5.982;2022-07-22T01:01:06;19.90;;;6.70;;
36233;SDS011;43467;50.890;5.982;2022-07-22T01:03:32;20.17;;;7.63;;
36233;SDS011;43467;50.890;5.982;2022-07-22T01:05:58;16.92;;;6.82;;
36233;SDS011;43467;50.890;5.982;2022-07-22T01:08:23;23.33;;;7.07;;
36233;SDS011;43467;50.890;5.982;2022-07-22T01:10:49;21.67;;;6.25;;
36233;SDS011;43467;50.890;5.982;2022-07-22T01:13:15;20.20;;;6.82;;
36233;SDS011;43467;50.890;5.982;2022-07-22T01:15:40;14.25;;;6.10;;
36233;SDS011;43467;50.890;5.982;2022-07-22T01:18:05;19.73;;;7.10;;
36233;SDS011;43467;50.890;5.982;2022-07-22T01:20:31;16.48;;;6.88;;
36233;SDS011;43467;50.890;5.982;2022-07-22T01:22:56;23.83;;;7.05;;
36233;SDS011;43467;50.890;5.982;2022-07-22T01:25:22;8.95;;;6.03;;
36233;SDS011;43467;50.890;5.982;2022-07-22T01:27:47;10.25;;;5.97;;
36233;SDS011;43467;50.890;5.982;2022-07-22T01:30:13;13.07;;;5.25;;
36233;SDS011;43467;50.890;5.982;2022-07-22T01:32:38;12.45;;;5.10;;
36233;SDS011;43467;50.890;5.982;2022-07-22T01:35:03;9.65;;;4.53;;
36233;SDS011;43467;50.890;5.982;2022-07-22T01:37:29;8.02;;;4.78;;
36233;SDS011;43467;50.890;5.982;2022-07-22T01:39:56;8.15;;;3.10;;
36233;SDS011;43467;50.890;5.982;2022-07-22T01:42:21;6.65;;;3.50;;
36233;SDS011;43467;50.890;5.982;2022-07-22T01:44:47;8.52;;;3.92;;
36233;SDS011;43467;50.890;5.982;2022-07-22T01:47:12;7.40;;;4.03;;
36233;SDS011;43467;50.890;5.982;2022-07-22T01:49:37;9.90;;;4.70;;
36233;SDS011;43467;50.890;5.982;2022-07-22T01:52:03;12.73;;;5.30;;
36233;SDS011;43467;50.890;5.982;2022-07-22T01:54:29;11.93;;;4.88;;
36233;SDS011;43467;50.890;5.982;2022-07-22T01:56:55;10.13;;;4.70;;
36233;SDS011;43467;50.890;5.982;2022-07-22T01:59:20;12.40;;;5.70;;
36233;SDS011;43467;50.890;5.982;2022-07-22T02:01:45;6.75;;;4.05;;
36233;SDS011;43467;50.890;5.982;2022-07-22T02:04:11;8.23;;;3.92;;
36233;SDS011;43467;50.890;5.982;2022-07-22T02:06:36;9.13;;;4.38;;
36233;SDS011;43467;50.890;5.982;2022-07-22T02:09:02;7.72;;;3.00;;
36233;SDS011;43467;50.890;5.982;2022-07-22T02:11:28;4.30;;;2.53;;
36233;SDS011;43467;50.890;5.982;2022-07-22T02:13:53;4.78;;;2.80;;
36233;SDS011;43467;50.890;5.982;2022-07-22T02:16:19;5.65;;;2.78;;
36233;SDS011;43467;50.890;5.982;2022-07-22T02:18:44;3.92;;;2.70;;
36233;SDS011;43467;50.890;5.982;2022-07-22T02:21:09;5.20;;;3.00;;
36233;SDS011;43467;50.890;5.982;2022-07-22T02:23:35;3.97;;;3.25;;
36233;SDS011;43467;50.890;5.982;2022-07-22T02:26:00;6.85;;;3.33;;
36233;SDS011;43467;50.890;5.982;2022-07-22T02:28:26;7.43;;;3.60;;
36233;SDS011;43467;50.890;5.982;2022-07-22T02:30:51;11.23;;;4.18;;
36233;SDS011;43467;50.890;5.982;2022-07-22T02:33:17;7.72;;;4.18;;
36233;SDS011;43467;50.890;5.982;2022-07-22T02:35:42;6.90;;;4.15;;
36233;SDS011;43467;50.890;5.982;2022-07-22T02:38:08;10.00;;;4.28;;
36233;SDS011;43467;50.890;5.982;2022-07-22T02:40:33;6.43;;;3.70;;
36233;SDS011;43467;50.890;5.982;2022-07-22T02:42:59;4.70;;;3.42;;
36233;SDS011;43467;50.890;5.982;2022-07-22T02:45:24;9.30;;;4.20;;
36233;SDS011;43467;50.890;5.982;2022-07-22T02:47:53;9.05;;;4.35;;
36233;SDS011;43467;50.890;5.982;2022-07-22T02:50:20;9.48;;;4.18;;
36233;SDS011;43467;50.890;5.982;2022-07-22T02:52:46;9.88;;;5.05;;
36233;SDS011;43467;50.890;5.982;2022-07-22T02:55:12;10.65;;;5.13;;
36233;SDS011;43467;50.890;5.982;2022-07-22T02:57:38;13.15;;;4.97;;
36233;SDS011;43467;50.890;5.982;2022-07-22T03:00:04;11.48;;;5.70;;
36233;SDS011;43467;50.890;5.982;2022-07-22T03:02:31;11.35;;;6.00;;
36233;SDS011;43467;50.890;5.982;2022-07-22T03:04:56;11.88;;;5.60;;
36233;SDS011;43467;50.890;5.982;2022-07-22T03:07:21;12.70;;;6.40;;
36233;SDS011;43467;50.890;5.982;2022-07-22T03:09:47;14.27;;;6.15;;
36233;SDS011;43467;50.890;5.982;2022-07-22T03:12:12;14.52;;;5.80;;
36233;SDS011;43467;50.890;5.982;2022-07-22T03:14:38;12.57;;;6.47;;
36233;SDS011;43467;50.890;5.982;2022-07-22T03:17:03;12.43;;;7.88;;
36233;SDS011;43467;50.890;5.982;2022-07-22T03:19:28;18.75;;;7.50;;
36233;SDS011;43467;50.890;5.982;2022-07-22T03:21:54;17.50;;;6.88;;
36233;SDS011;43467;50.890;5.982;2022-07-22T03:24:19;10.63;;;5.40;;
36233;SDS011;43467;50.890;5.982;2022-07-22T03:26:45;12.07;;;6.78;;
36233;SDS011;43467;50.890;5.982;2022-07-22T03:29:10;12.07;;;6.18;;
36233;SDS011;43467;50.890;5.982;2022-07-22T03:31:35;10.73;;;5.95;;
36233;SDS011;43467;50.890;5.982;2022-07-22T03:34:01;15.13;;;6.57;;
36233;SDS011;43467;50.890;5.982;2022-07-22T03:36:27;10.60;;;6.15;;
36233;SDS011;43467;50.890;5.982;2022-07-22T03:38:54;17.45;;;6.70;;
36233;SDS011;43467;50.890;5.982;2022-07-22T03:41:19;15.15;;;6.30;;
36233;SDS011;43467;50.890;5.982;2022-07-22T03:43:45;9.60;;;6.13;;
36233;SDS011;43467;50.890;5.982;2022-07-22T03:46:10;11.07;;;5.82;;
36233;SDS011;43467;50.890;5.982;2022-07-22T03:48:35;12.50;;;5.65;;
36233;SDS011;43467;50.890;5.982;2022-07-22T03:51:01;10.60;;;6.35;;
36233;SDS011;43467;50.890;5.982;2022-07-22T03:53:26;10.05;;;5.78;;
36233;SDS011;43467;50.890;5.982;2022-07-22T03:55:51;13.88;;;6.30;;
36233;SDS011;43467;50.890;5.982;2022-07-22T03:58:17;11.25;;;6.38;;
36233;SDS011;43467;50.890;5.982;2022-07-22T04:00:43;13.95;;;7.05;;
36233;SDS011;43467;50.890;5.982;2022-07-22T04:03:08;10.05;;;6.13;;
36233;SDS011;43467;50.890;5.982;2022-07-22T04:05:34;13.43;;;6.45;;
36233;SDS011;43467;50.890;5.982;2022-07-22T04:07:59;12.30;;;6.53;;
36233;SDS011;43467;50.890;5.982;2022-07-22T04:10:24;14.20;;;6.35;;
36233;SDS011;43467;50.890;5.982;2022-07-22T04:12:50;8.52;;;5.40;;
36233;SDS011;43467;50.890;5.982;2022-07-22T04:15:15;17.05;;;6.68;;
36233;SDS011;43467;50.890;5.982;2022-07-22T04:17:40;7.90;;;5.63;;
36233;SDS011;43467;50.890;5.982;2022-07-22T04:20:07;18.95;;;7.22;;
36233;SDS011;43467;50.890;5.982;2022-07-22T04:22:33;11.80;;;6.32;;
36233;SDS011;43467;50.890;5.982;2022-07-22T04:24:58;12.13;;;6.47;;
36233;SDS011;43467;50.890;5.982;2022-07-22T04:27:24;12.95;;;6.72;;
36233;SDS011;43467;50.890;5.982;2022-07-22T04:29:49;10.85;;;6.72;;
36233;SDS011;43467;50.890;5.982;2022-07-22T04:32:14;16.02;;;7.47;;
36233;SDS011;43467;50.890;5.982;2022-07-22T04:34:40;13.43;;;7.03;;
36233;SDS011;43467;50.890;5.982;2022-07-22T04:37:06;10.70;;;6.45;;
36233;SDS011;43467;50.890;5.982;2022-07-22T04:39:32;16.55;;;8.02;;
36233;SDS011;43467;50.890;5.982;2022-07-22T04:41:58;12.05;;;7.10;;
36233;SDS011;43467;50.890;5.982;2022-07-22T04:44:23;12.43;;;6.78;;
36233;SDS011;43467;50.890;5.982;2022-07-22T04:46:49;15.48;;;6.97;;
36233;SDS011;43467;50.890;5.982;2022-07-22T04:49:14;13.18;;;6.75;;
36233;SDS011;43467;50.890;5.982;2022-07-22T04:51:39;11.93;;;6.78;;
36233;SDS011;43467;50.890;5.982;2022-07-22T04:54:05;16.35;;;7.20;;
36233;SDS011;43467;50.890;5.982;2022-07-22T04:56:30;11.52;;;6.30;;
36233;SDS011;43467;50.890;5.982;2022-07-22T04:58:56;11.57;;;6.68;;
36233;SDS011;43467;50.890;5.982;2022-07-22T05:01:21;21.30;;;7.32;;
36233;SDS011;43467;50.890;5.982;2022-07-22T05:03:46;17.17;;;7.13;;
36233;SDS011;43467;50.890;5.982;2022-07-22T05:06:12;11.20;;;7.25;;
36233;SDS011;43467;50.890;5.982;2022-07-22T05:08:37;10.27;;;6.00;;
36233;SDS011;43467;50.890;5.982;2022-07-22T05:11:03;12.57;;;6.57;;
36233;SDS011;43467;50.890;5.982;2022-07-22T05:13:28;14.52;;;6.80;;
36233;SDS011;43467;50.890;5.982;2022-07-22T05:15:54;14.23;;;6.38;;
36233;SDS011;43467;50.890;5.982;2022-07-22T05:18:19;12.40;;;7.47;;
36233;SDS011;43467;50.890;5.982;2022-07-22T05:20:45;10.50;;;6.10;;
36233;SDS011;43467;50.890;5.982;2022-07-22T05:23:11;10.30;;;5.90;;
36233;SDS011;43467;50.890;5.982;2022-07-22T05:25:36;9.75;;;6.28;;
36233;SDS011;43467;50.890;5.982;2022-07-22T05:28:02;13.43;;;5.25;;
36233;SDS011;43467;50.890;5.982;2022-07-22T05:30:27;11.25;;;5.55;;
36233;SDS011;43467;50.890;5.982;2022-07-22T05:32:53;11.98;;;5.28;;
36233;SDS011;43467;50.890;5.982;2022-07-22T05:35:18;14.63;;;5.53;;
36233;SDS011;43467;50.890;5.982;2022-07-22T05:37:44;6.00;;;3.60;;
36233;SDS011;43467;50.890;5.982;2022-07-22T05:40:09;10.63;;;3.45;;
36233;SDS011;43467;50.890;5.982;2022-07-22T05:42:35;5.57;;;3.05;;
36233;SDS011;43467;50.890;5.982;2022-07-22T05:45:00;8.82;;;3.47;;
36233;SDS011;43467;50.890;5.982;2022-07-22T05:47:26;6.35;;;3.40;;
36233;SDS011;43467;50.890;5.982;2022-07-22T05:49:51;6.60;;;4.07;;
36233;SDS011;43467;50.890;5.982;2022-07-22T05:52:17;6.82;;;4.43;;
36233;SDS011;43467;50.890;5.982;2022-07-22T05:54:42;7.80;;;4.55;;
36233;SDS011;43467;50.890;5.982;2022-07-22T05:57:08;6.47;;;4.43;;
36233;SDS011;43467;50.890;5.982;2022-07-22T05:59:35;7.70;;;4.20;;
36233;SDS011;43467;50.890;5.982;2022-07-22T06:02:00;7.45;;;4.22;;
36233;SDS011;43467;50.890;5.982;2022-07-22T06:04:26;8.95;;;4.72;;
36233;SDS011;43467;50.890;5.982;2022-07-22T06:06:51;8.00;;;3.90;;
36233;SDS011;43467;50.890;5.982;2022-07-22T06:09:17;9.75;;;4.68;;
36233;SDS011;43467;50.890;5.982;2022-07-22T06:11:42;7.28;;;4.05;;
36233;SDS011;43467;50.890;5.982;2022-07-22T06:14:08;6.97;;;4.10;;
36233;SDS011;43467;50.890;5.982;2022-07-22T06:16:33;11.55;;;5.10;;
36233;SDS011;43467;50.890;5.982;2022-07-22T06:19:00;8.55;;;4.20;;
36233;SDS011;43467;50.890;5.982;2022-07-22T06:21:26;9.52;;;4.07;;
36233;SDS011;43467;50.890;5.982;2022-07-22T06:23:51;11.13;;;4.05;;
36233;SDS011;43467;50.890;5.982;2022-07-22T06:26:17;10.88;;;4.75;;
36233;SDS011;43467;50.890;5.982;2022-07-22T06:28:43;10.32;;;4.85;;
36233;SDS011;43467;50.890;5.982;2022-07-22T06:31:08;10.15;;;4.68;;
36233;SDS011;43467;50.890;5.982;2022-07-22T06:33:34;8.93;;;4.03;;
36233;SDS011;43467;50.890;5.982;2022-07-22T06:35:59;6.95;;;4.40;;
36233;SDS011;43467;50.890;5.982;2022-07-22T06:38:25;8.00;;;3.75;;
36233;SDS011;43467;50.890;5.982;2022-07-22T06:40:50;12.30;;;4.85;;
36233;SDS011;43467;50.890;5.982;2022-07-22T06:43:16;10.32;;;4.35;;
36233;SDS011;43467;50.890;5.982;2022-07-22T06:45:41;9.63;;;4.43;;
36233;SDS011;43467;50.890;5.982;2022-07-22T06:48:07;11.75;;;5.70;;
36233;SDS011;43467;50.890;5.982;2022-07-22T06:50:32;8.75;;;4.82;;
36233;SDS011;43467;50.890;5.982;2022-07-22T06:52:58;8.88;;;5.30;;
36233;SDS011;43467;50.890;5.982;2022-07-22T06:55:23;7.93;;;4.95;;
36233;SDS011;43467;50.890;5.982;2022-07-22T06:57:48;11.55;;;5.70;;
36233;SDS011;43467;50.890;5.982;2022-07-22T07:00:14;12.05;;;4.95;;
36233;SDS011;43467;50.890;5.982;2022-07-22T07:02:40;9.55;;;4.93;;
36233;SDS011;43467;50.890;5.982;2022-07-22T07:05:06;9.55;;;5.40;;
36233;SDS011;43467;50.890;5.982;2022-07-22T07:07:31;9.75;;;4.35;;
36233;SDS011;43467;50.890;5.982;2022-07-22T07:09:57;11.93;;;5.43;;
36233;SDS011;43467;50.890;5.982;2022-07-22T07:12:22;18.13;;;5.20;;
36233;SDS011;43467;50.890;5.982;2022-07-22T07:14:48;8.18;;;4.75;;
36233;SDS011;43467;50.890;5.982;2022-07-22T07:17:13;10.55;;;5.05;;
36233;SDS011;43467;50.890;5.982;2022-07-22T07:19:40;10.25;;;5.55;;
36233;SDS011;43467;50.890;5.982;2022-07-22T07:22:06;8.63;;;5.20;;
36233;SDS011;43467;50.890;5.982;2022-07-22T07:24:31;7.20;;;5.10;;
36233;SDS011;43467;50.890;5.982;2022-07-22T07:26:56;10.50;;;5.13;;
36233;SDS011;43467;50.890;5.982;2022-07-22T07:29:22;8.85;;;4.45;;
36233;SDS011;43467;50.890;5.982;2022-07-22T07:31:48;9.13;;;5.57;;
36233;SDS011;43467;50.890;5.982;2022-07-22T07:34:13;7.15;;;4.85;;
36233;SDS011;43467;50.890;5.982;2022-07-22T07:36:39;5.90;;;3.90;;
36233;SDS011;43467;50.890;5.982;2022-07-22T07:39:04;9.32;;;4.43;;
36233;SDS011;43467;50.890;5.982;2022-07-22T07:41:29;9.10;;;4.78;;
36233;SDS011;43467;50.890;5.982;2022-07-22T07:43:55;5.53;;;3.42;;
36233;SDS011;43467;50.890;5.982;2022-07-22T07:46:20;8.23;;;3.80;;
36233;SDS011;43467;50.890;5.982;2022-07-22T07:48:46;8.43;;;3.65;;
36233;SDS011;43467;50.890;5.982;2022-07-22T07:51:13;11.07;;;4.45;;
36233;SDS011;43467;50.890;5.982;2022-07-22T07:53:38;6.07;;;3.63;;
36233;SDS011;43467;50.890;5.982;2022-07-22T07:56:04;8.48;;;3.60;;
36233;SDS011;43467;50.890;5.982;2022-07-22T07:58:29;6.88;;;3.60;;
36233;SDS011;43467;50.890;5.982;2022-07-22T08:00:55;7.90;;;3.40;;
36233;SDS011;43467;50.890;5.982;2022-07-22T08:03:20;8.10;;;3.78;;
36233;SDS011;43467;50.890;5.982;2022-07-22T08:05:46;10.35;;;4.65;;
36233;SDS011;43467;50.890;5.982;2022-07-22T08:08:11;6.25;;;3.55;;
36233;SDS011;43467;50.890;5.982;2022-07-22T08:10:37;7.68;;;4.20;;
36233;SDS011;43467;50.890;5.982;2022-07-22T08:13:02;4.72;;;3.40;;
36233;SDS011;43467;50.890;5.982;2022-07-22T08:15:28;9.07;;;4.47;;
36233;SDS011;43467;50.890;5.982;2022-07-22T08:17:55;8.30;;;3.88;;
36233;SDS011;43467;50.890;5.982;2022-07-22T08:20:21;7.97;;;4.68;;
36233;SDS011;43467;50.890;5.982;2022-07-22T08:22:48;7.28;;;4.82;;
36233;SDS011;43467;50.890;5.982;2022-07-22T08:25:13;10.30;;;4.40;;
36233;SDS011;43467;50.890;5.982;2022-07-22T08:27:39;9.00;;;4.40;;
36233;SDS011;43467;50.890;5.982;2022-07-22T08:30:05;9.20;;;5.40;;
36233;SDS011;43467;50.890;5.982;2022-07-22T08:32:32;15.85;;;6.07;;
36233;SDS011;43467;50.890;5.982;2022-07-22T08:34:58;8.70;;;4.30;;
36233;SDS011;43467;50.890;5.982;2022-07-22T08:37:23;10.45;;;5.60;;
36233;SDS011;43467;50.890;5.982;2022-07-22T08:39:49;7.93;;;4.40;;
36233;SDS011;43467;50.890;5.982;2022-07-22T08:42:14;7.43;;;4.75;;
36233;SDS011;43467;50.890;5.982;2022-07-22T08:44:40;14.77;;;5.72;;
36233;SDS011;43467;50.890;5.982;2022-07-22T08:47:06;7.90;;;4.82;;
36233;SDS011;43467;50.890;5.982;2022-07-22T08:49:31;10.82;;;5.95;;
36233;SDS011;43467;50.890;5.982;2022-07-22T08:51:57;7.03;;;4.88;;
36233;SDS011;43467;50.890;5.982;2022-07-22T08:54:22;9.30;;;4.60;;
36233;SDS011;43467;50.890;5.982;2022-07-22T08:56:48;8.18;;;4.30;;
36233;SDS011;43467;50.890;5.982;2022-07-22T08:59:14;8.80;;;4.25;;
36233;SDS011;43467;50.890;5.982;2022-07-22T09:02:00;6.75;;;4.20;;
36233;SDS011;43467;50.890;5.982;2022-07-22T09:04:34;6.57;;;4.45;;
36233;SDS011;43467;50.890;5.982;2022-07-22T09:07:38;8.15;;;4.55;;
36233;SDS011;43467;50.890;5.982;2022-07-22T09:10:07;7.15;;;4.80;;
36233;SDS011;43467;50.890;5.982;2022-07-22T09:12:34;7.82;;;4.68;;
36233;SDS011;43467;50.890;5.982;2022-07-22T09:15:14;9.98;;;4.47;;
36233;SDS011;43467;50.890;5.982;2022-07-22T09:17:40;6.63;;;4.03;;
36233;SDS011;43467;50.890;5.982;2022-07-22T09:20:18;6.22;;;3.53;;
36233;SDS011;43467;50.890;5.982;2022-07-22T09:22:44;8.27;;;4.53;;
36233;SDS011;43467;50.890;5.982;2022-07-22T09:25:26;8.10;;;3.78;;
36233;SDS011;43467;50.890;5.982;2022-07-22T09:30:31;6.05;;;4.20;;
36233;SDS011;43467;50.890;5.982;2022-07-22T09:32:58;6.28;;;3.97;;
36233;SDS011;43467;50.890;5.982;2022-07-22T09:35:24;6.03;;;3.80;;
36233;SDS011;43467;50.890;5.982;2022-07-22T09:37:56;6.88;;;3.67;;
36233;SDS011;43467;50.890;5.982;2022-07-22T09:40:24;9.75;;;5.05;;
36233;SDS011;43467;50.890;5.982;2022-07-22T09:42:55;7.07;;;4.25;;
36233;SDS011;43467;50.890;5.982;2022-07-22T09:45:23;7.03;;;4.60;;
36233;SDS011;43467;50.890;5.982;2022-07-22T09:47:53;8.05;;;4.20;;
36233;SDS011;43467;50.890;5.982;2022-07-22T09:50:24;5.70;;;3.88;;
36233;SDS011;43467;50.890;5.982;2022-07-22T09:52:52;7.60;;;4.22;;
36233;SDS011;43467;50.890;5.982;2022-07-22T09:55:19;5.88;;;3.35;;
36233;SDS011;43467;50.890;5.982;2022-07-22T09:57:46;6.13;;;3.75;;
36233;SDS011;43467;50.890;5.982;2022-07-22T10:00:13;8.52;;;3.22;;
36233;SDS011;43467;50.890;5.982;2022-07-22T10:05:18;5.47;;;4.47;;
36233;SDS011;43467;50.890;5.982;2022-07-22T10:07:45;8.50;;;4.18;;
36233;SDS011;43467;50.890;5.982;2022-07-22T10:10:13;5.75;;;3.53;;
36233;SDS011;43467;50.890;5.982;2022-07-22T10:12:40;6.50;;;3.38;;
36233;SDS011;43467;50.890;5.982;2022-07-22T10:15:07;7.90;;;4.18;;
36233;SDS011;43467;50.890;5.982;2022-07-22T10:17:35;6.30;;;3.88;;
36233;SDS011;43467;50.890;5.982;2022-07-22T10:20:03;8.20;;;3.75;;
36233;SDS011;43467;50.890;5.982;2022-07-22T10:25:06;5.03;;;3.78;;
36233;SDS011;43467;50.890;5.982;2022-07-22T10:28:19;8.88;;;5.22;;
36233;SDS011;43467;50.890;5.982;2022-07-22T10:30:42;10.25;;;5.43;;
36233;SDS011;43467;50.890;5.982;2022-07-22T10:35:34;10.55;;;5.15;;
36233;SDS011;43467;50.890;5.982;2022-07-22T10:38:03;6.20;;;4.15;;
36233;SDS011;43467;50.890;5.982;2022-07-22T10:40:47;6.75;;;4.07;;
36233;SDS011;43467;50.890;5.982;2022-07-22T10:43:25;7.28;;;4.55;;
36233;SDS011;43467;50.890;5.982;2022-07-22T10:51:17;7.82;;;4.38;;
36233;SDS011;43467;50.890;5.982;2022-07-22T10:56:23;7.00;;;4.55;;
36233;SDS011;43467;50.890;5.982;2022-07-22T10:58:57;7.40;;;4.15;;
36233;SDS011;43467;50.890;5.982;2022-07-22T11:01:25;9.82;;;4.28;;
36233;SDS011;43467;50.890;5.982;2022-07-22T11:03:52;7.82;;;4.90;;
36233;SDS011;43467;50.890;5.982;2022-07-22T11:06:22;7.25;;;5.25;;
36233;SDS011;43467;50.890;5.982;2022-07-22T11:08:55;6.78;;;5.03;;
36233;SDS011;43467;50.890;5.982;2022-07-22T11:14:20;8.25;;;5.57;;
36233;SDS011;43467;50.890;5.982;2022-07-22T11:16:48;6.65;;;5.10;;
36233;SDS011;43467;50.890;5.982;2022-07-22T11:19:18;10.35;;;5.07;;
36233;SDS011;43467;50.890;5.982;2022-07-22T11:21:48;7.35;;;4.65;;
36233;SDS011;43467;50.890;5.982;2022-07-22T11:24:18;7.10;;;3.60;;
36233;SDS011;43467;50.890;5.982;2022-07-22T11:26:46;7.63;;;4.07;;
36233;SDS011;43467;50.890;5.982;2022-07-22T11:29:33;6.97;;;4.68;;
36233;SDS011;43467;50.890;5.982;2022-07-22T11:31:59;5.45;;;3.58;;
36233;SDS011;43467;50.890;5.982;2022-07-22T11:34:26;6.72;;;3.80;;
36233;SDS011;43467;50.890;5.982;2022-07-22T11:36:53;5.10;;;3.13;;
36233;SDS011;43467;50.890;5.982;2022-07-22T11:39:23;8.85;;;4.70;;
36233;SDS011;43467;50.890;5.982;2022-07-22T11:41:52;8.00;;;3.95;;
36233;SDS011;43467;50.890;5.982;2022-07-22T11:44:23;9.63;;;4.43;;
36233;SDS011;43467;50.890;5.982;2022-07-22T11:46:50;7.78;;;5.55;;
36233;SDS011;43467;50.890;5.982;2022-07-22T11:49:17;6.75;;;4.05;;
36233;SDS011;43467;50.890;5.982;2022-07-22T11:51:44;5.47;;;3.65;;
36233;SDS011;43467;50.890;5.982;2022-07-22T11:54:09;6.75;;;3.50;;
36233;SDS011;43467;50.890;5.982;2022-07-22T11:56:35;4.73;;;3.37;;
36233;SDS011;43467;50.890;5.982;2022-07-22T11:59:01;6.50;;;3.88;;
36233;SDS011;43467;50.890;5.982;2022-07-22T12:01:30;4.60;;;3.47;;
36233;SDS011;43467;50.890;5.982;2022-07-22T12:03:59;8.13;;;4.25;;
36233;SDS011;43467;50.890;5.982;2022-07-22T12:06:27;14.93;;;5.13;;
36233;SDS011;43467;50.890;5.982;2022-07-22T12:08:53;7.68;;;3.97;;
36233;SDS011;43467;50.890;5.982;2022-07-22T12:11:22;3.88;;;3.13;;
36233;SDS011;43467;50.890;5.982;2022-07-22T12:13:49;6.45;;;3.40;;
36233;SDS011;43467;50.890;5.982;2022-07-22T12:21:30;8.02;;;3.13;;
36233;SDS011;43467;50.890;5.982;2022-07-22T12:23:57;5.88;;;3.13;;
36233;SDS011;43467;50.890;5.982;2022-07-22T12:26:45;4.47;;;3.08;;
36233;SDS011;43467;50.890;5.982;2022-07-22T12:29:19;4.45;;;2.60;;
36233;SDS011;43467;50.890;5.982;2022-07-22T12:31:52;5.35;;;3.15;;
36233;SDS011;43467;50.890;5.982;2022-07-22T12:34:30;9.63;;;3.50;;
36233;SDS011;43467;50.890;5.982;2022-07-22T12:39:37;7.72;;;3.03;;
36233;SDS011;43467;50.890;5.982;2022-07-22T12:42:14;6.47;;;3.40;;
36233;SDS011;43467;50.890;5.982;2022-07-22T12:44:45;6.03;;;3.05;;
36233;SDS011;43467;50.890;5.982;2022-07-22T12:47:15;5.32;;;2.92;;
36233;SDS011;43467;50.890;5.982;2022-07-22T12:49:41;5.53;;;3.10;;
36233;SDS011;43467;50.890;5.982;2022-07-22T12:52:07;4.47;;;2.95;;
36233;SDS011;43467;50.890;5.982;2022-07-22T12:54:35;4.43;;;2.67;;
36233;SDS011;43467;50.890;5.982;2022-07-22T12:57:02;5.63;;;2.53;;
36233;SDS011;43467;50.890;5.982;2022-07-22T12:59:29;4.68;;;2.80;;
36233;SDS011;43467;50.890;5.982;2022-07-22T13:01:54;5.28;;;3.22;;
36233;SDS011;43467;50.890;5.982;2022-07-22T13:04:20;4.85;;;3.28;;
36233;SDS011;43467;50.890;5.982;2022-07-22T13:06:45;8.95;;;3.90;;
36233;SDS011;43467;50.890;5.982;2022-07-22T13:09:10;5.13;;;3.00;;
36233;SDS011;43467;50.890;5.982;2022-07-22T13:11:36;5.25;;;3.15;;
36233;SDS011;43467;50.890;5.982;2022-07-22T13:14:05;5.32;;;3.13;;
36233;SDS011;43467;50.890;5.982;2022-07-22T13:16:31;4.43;;;2.65;;
36233;SDS011;43467;50.890;5.982;2022-07-22T13:18:57;4.35;;;2.78;;
36233;SDS011;43467;50.890;5.982;2022-07-22T13:21:22;4.93;;;3.25;;
36233;SDS011;43467;50.890;5.982;2022-07-22T13:23:48;3.95;;;2.55;;
36233;SDS011;43467;50.890;5.982;2022-07-22T13:26:13;5.70;;;3.17;;
36233;SDS011;43467;50.890;5.982;2022-07-22T13:28:39;6.82;;;3.45;;
36233;SDS011;43467;50.890;5.982;2022-07-22T13:31:04;4.47;;;2.88;;
36233;SDS011;43467;50.890;5.982;2022-07-22T13:33:29;3.88;;;2.38;;
36233;SDS011;43467;50.890;5.982;2022-07-22T13:35:55;4.70;;;3.03;;
36233;SDS011;43467;50.890;5.982;2022-07-22T13:38:20;3.65;;;2.58;;
36233;SDS011;43467;50.890;5.982;2022-07-22T13:40:46;4.88;;;2.50;;
36233;SDS011;43467;50.890;5.982;2022-07-22T13:43:18;4.28;;;2.90;;
36233;SDS011;43467;50.890;5.982;2022-07-22T13:45:44;3.38;;;2.38;;
36233;SDS011;43467;50.890;5.982;2022-07-22T13:48:09;4.47;;;2.38;;
36233;SDS011;43467;50.890;5.982;2022-07-22T13:50:35;4.40;;;2.55;;
36233;SDS011;43467;50.890;5.982;2022-07-22T13:53:00;4.05;;;2.20;;
36233;SDS011;43467;50.890;5.982;2022-07-22T13:55:26;4.38;;;2.78;;
36233;SDS011;43467;50.890;5.982;2022-07-22T13:57:51;5.20;;;2.50;;
36233;SDS011;43467;50.890;5.982;2022-07-22T14:00:17;3.75;;;3.03;;
36233;SDS011;43467;50.890;5.982;2022-07-22T14:02:43;6.47;;;2.72;;
36233;SDS011;43467;50.890;5.982;2022-07-22T14:05:09;3.75;;;2.38;;
36233;SDS011;43467;50.890;5.982;2022-07-22T14:07:35;2.50;;;1.88;;
36233;SDS011;43467;50.890;5.982;2022-07-22T14:10:00;3.55;;;2.83;;
36233;SDS011;43467;50.890;5.982;2022-07-22T14:12:26;2.33;;;2.10;;
36233;SDS011;43467;50.890;5.982;2022-07-22T14:14:51;4.70;;;2.72;;
36233;SDS011;43467;50.890;5.982;2022-07-22T14:17:17;4.30;;;2.50;;
36233;SDS011;43467;50.890;5.982;2022-07-22T14:19:42;3.35;;;2.60;;
36233;SDS011;43467;50.890;5.982;2022-07-22T14:22:08;4.60;;;2.60;;
36233;SDS011;43467;50.890;5.982;2022-07-22T14:24:33;4.82;;;2.50;;
36233;SDS011;43467;50.890;5.982;2022-07-22T14:26:58;7.03;;;2.53;;
36233;SDS011;43467;50.890;5.982;2022-07-22T14:29:24;3.42;;;2.30;;
36233;SDS011;43467;50.890;5.982;2022-07-22T14:31:49;4.53;;;2.80;;
36233;SDS011;43467;50.890;5.982;2022-07-22T14:34:15;2.72;;;2.30;;
36233;SDS011;43467;50.890;5.982;2022-07-22T14:36:41;3.85;;;2.40;;
36233;SDS011;43467;50.890;5.982;2022-07-22T14:39:06;4.72;;;2.08;;
36233;SDS011;43467;50.890;5.982;2022-07-22T14:41:32;4.22;;;2.80;;
36233;SDS011;43467;50.890;5.982;2022-07-22T14:43:57;5.28;;;2.63;;
36233;SDS011;43467;50.890;5.982;2022-07-22T14:46:22;4.35;;;2.80;;
36233;SDS011;43467;50.890;5.982;2022-07-22T14:48:48;5.45;;;3.05;;
36233;SDS011;43467;50.890;5.982;2022-07-22T14:51:18;6.43;;;2.58;;
36233;SDS011;43467;50.890;5.982;2022-07-22T14:53:44;3.30;;;2.25;;
36233;SDS011;43467;50.890;5.982;2022-07-22T14:56:10;4.22;;;2.45;;
36233;SDS011;43467;50.890;5.982;2022-07-22T14:58:35;4.55;;;2.75;;
36233;SDS011;43467;50.890;5.982;2022-07-22T15:01:01;4.45;;;2.50;;
36233;SDS011;43467;50.890;5.982;2022-07-22T15:03:26;5.70;;;2.55;;
36233;SDS011;43467;50.890;5.982;2022-07-22T15:05:52;4.57;;;2.88;;
36233;SDS011;43467;50.890;5.982;2022-07-22T15:08:17;4.00;;;2.63;;